Time;durP1;ratioP1;P1;durP2;ratioP2;P2;SDS_P1;SDS_P2;PMS_P1;PMS_P2;Temp;Humidity;BMP_temperature;BMP_pressure;BME280_temperature;BME280_humidity;BME280_pressure;Samples;Min_cycle;Max_cycle;Signal;HPM_P1;HPM_P2
2021/07/29 00:00:04;;;;;;;;;4.25;3.00;;;;;24.44;41.15;100534.91;5025071;28;45332;-80
2021/07/29 00:02:30;;;;;;;;;4.50;3.00;;;;;24.47;41.01;100540.06;5058546;28;45382;-80
2021/07/29 00:04:55;;;;;;;;;3.25;2.50;;;;;24.49;40.46;100546.19;5041849;28;45508;-81
2021/07/29 00:07:21;;;;;;;;;2.75;2.75;;;;;24.45;40.89;100555.31;5057636;28;61092;-80
2021/07/29 00:09:46;;;;;;;;;3.00;3.00;;;;;24.46;41.02;100546.34;5041518;28;45547;-80
2021/07/29 00:12:15;;;;;;;;;4.00;2.50;;;;;24.46;40.81;100557.91;5041237;28;47424;-80
2021/07/29 00:14:48;;;;;;;;;2.50;2.00;;;;;24.46;40.82;100557.91;5042281;28;45308;-80
2021/07/29 00:17:27;;;;;;;;;3.75;3.75;;;;;24.47;40.92;100556.09;5025826;28;45359;-80
2021/07/29 00:19:53;;;;;;;;;4.00;4.00;;;;;24.50;41.00;100555.94;5030307;28;45378;-79
2021/07/29 00:22:18;;;;;;;;;2.00;2.00;;;;;24.48;41.16;100540.00;5020393;28;59180;-79
2021/07/29 00:24:46;;;;;;;;;3.25;2.25;;;;;24.47;40.68;100548.09;5004498;28;57245;-80
2021/07/29 00:27:12;;;;;;;;;2.50;2.50;;;;;24.43;41.38;100558.06;5054467;28;45392;-80
2021/07/29 00:29:40;;;;;;;;;4.00;2.75;;;;;24.35;41.22;100540.72;5051344;28;58306;-80
2021/07/29 00:32:22;;;;;;;;;5.00;3.50;;;;;24.36;41.00;100545.97;5060959;28;54752;-80
2021/07/29 00:34:54;;;;;;;;;3.00;3.00;;;;;24.27;40.88;100533.06;5045590;28;45751;-80
2021/07/29 00:38:02;;;;;;;;;;;;;;;;;;;;;
2021/07/29 00:40:28;;;;;;;;;3.50;3.50;;;;;24.41;41.49;100554.63;5061311;28;71472;-80
2021/07/29 00:42:56;;;;;;;;;2.50;2.00;;;;;24.39;41.48;100556.47;5044125;28;47039;-80
2021/07/29 00:45:22;;;;;;;;;4.00;2.75;;;;;24.39;41.55;100550.28;5027733;28;45237;-80
2021/07/29 00:47:47;;;;;;;;;3.50;3.00;;;;;24.32;41.42;100541.72;5044327;28;45448;-80
2021/07/29 00:50:16;;;;;;;;;3.50;3.50;;;;;24.31;41.87;100552.44;5062693;28;45568;-80
2021/07/29 00:52:42;;;;;;;;;4.00;3.75;;;;;24.34;41.35;100553.19;5060987;28;45346;-80
2021/07/29 00:55:10;;;;;;;;;3.50;3.50;;;;;24.33;41.78;100554.13;5061360;28;45436;-80
2021/07/29 00:57:36;;;;;;;;;2.75;2.75;;;;;24.35;41.29;100554.06;5028596;28;45277;-79
2021/07/29 01:00:02;;;;;;;;;4.50;4.00;;;;;24.31;42.18;100547.97;5027834;28;45299;-81
2021/07/29 01:02:27;;;;;;;;;7.00;4.00;;;;;24.30;41.74;100550.72;5026899;28;47562;-80
2021/07/29 01:04:53;;;;;;;;;2.75;2.75;;;;;24.30;42.00;100556.03;5044304;28;45246;-80
2021/07/29 01:07:21;;;;;;;;;5.25;3.00;;;;;24.31;42.25;100552.44;5044381;28;45385;-80
2021/07/29 01:09:47;;;;;;;;;2.75;2.75;;;;;24.28;42.21;100555.28;5044339;28;51688;-80
2021/07/29 01:12:12;;;;;;;;;4.00;3.25;;;;;24.27;42.39;100558.88;5044133;28;45436;-80
2021/07/29 01:14:37;;;;;;;;;3.00;3.00;;;;;24.27;42.48;100553.53;5061676;28;64015;-79
2021/07/29 01:17:03;;;;;;;;;4.25;3.75;;;;;24.25;42.05;100559.81;5042880;28;63495;-80
2021/07/29 01:19:28;;;;;;;;;3.00;3.00;;;;;24.26;42.58;100563.34;5061103;28;45450;-79
2021/07/29 01:21:54;;;;;;;;;4.00;3.00;;;;;24.22;42.21;100559.97;5060608;28;45932;-80
2021/07/29 01:24:22;;;;;;;;;4.50;4.00;;;;;24.21;41.85;100563.56;5027303;28;45289;-79
2021/07/29 01:26:47;;;;;;;;;5.75;5.00;;;;;24.20;42.44;100564.50;5026152;28;45316;-80
2021/07/29 01:29:13;;;;;;;;;2.00;2.00;;;;;24.17;42.73;100559.34;5031239;28;55219;-80
2021/07/29 01:31:38;;;;;;;;;3.00;3.00;;;;;24.17;42.55;100562.00;5039967;28;45887;-80
2021/07/29 01:34:04;;;;;;;;;2.50;2.50;;;;;24.14;42.69;100569.28;5031481;28;45293;-80
2021/07/29 01:36:30;;;;;;;;;3.75;3.75;;;;;24.14;42.59;100567.47;5059264;28;45463;-80
2021/07/29 01:38:55;;;;;;;;;3.75;3.75;;;;;24.14;42.76;100567.47;5043437;28;45296;-80
2021/07/29 01:41:20;;;;;;;;;3.00;1.00;;;;;24.14;42.42;100571.94;5043336;28;46334;-80
2021/07/29 01:43:46;;;;;;;;;4.00;3.00;;;;;24.13;42.27;100576.41;5059755;28;61930;-80
2021/07/29 01:46:23;;;;;;;;;5.00;3.25;;;;;24.12;42.73;100580.03;5042971;28;51026;-81
2021/07/29 01:49:21;;;;;;;;;;;;;;;;;;;;;
2021/07/29 01:51:47;;;;;;;;;3.75;3.75;;;;;23.98;42.97;100555.88;5051174;28;75739;-80
2021/07/29 01:54:12;;;;;;;;;3.50;3.00;;;;;24.05;42.51;100570.59;5061507;28;45232;-80
2021/07/29 01:56:40;;;;;;;;;3.25;3.25;;;;;24.02;43.22;100581.44;5061005;28;59867;-81
2021/07/29 01:59:06;;;;;;;;;4.00;3.00;;;;;24.03;42.66;100580.47;5061381;28;45382;-80
2021/07/29 02:01:32;;;;;;;;;3.75;3.50;;;;;24.04;43.15;100582.22;5060964;28;45488;-80
2021/07/29 02:03:57;;;;;;;;;4.25;3.00;;;;;24.06;42.88;100577.66;5059800;28;45316;-81
2021/07/29 02:06:22;;;;;;;;;3.50;3.50;;;;;24.04;42.86;100570.69;5042715;28;63286;-80
2021/07/29 02:08:48;;;;;;;;;3.00;3.00;;;;;24.05;42.92;100567.94;5059923;28;45468;-80
2021/07/29 02:11:13;;;;;;;;;6.00;4.00;;;;;24.03;43.21;100579.63;5026297;28;46961;-81
2021/07/29 02:13:39;;;;;;;;;5.00;5.00;;;;;24.08;42.96;100577.59;5026511;28;45475;-81
2021/07/29 02:16:11;;;;;;;;;3.50;2.75;;;;;24.07;43.04;100570.56;5025692;28;64299;-81
2021/07/29 02:18:36;;;;;;;;;5.00;5.00;;;;;24.06;43.05;100564.31;5029604;28;45720;-80
2021/07/29 02:21:02;;;;;;;;;2.00;2.00;;;;;24.07;43.27;100566.09;5042422;28;65384;-80
2021/07/29 02:23:27;;;;;;;;;3.00;3.00;;;;;24.09;43.04;100580.19;5042820;28;45386;-81
2021/07/29 02:25:52;;;;;;;;;4.00;3.25;;;;;24.08;43.39;100567.81;5042750;28;51303;-81
2021/07/29 02:28:18;;;;;;;;;4.00;4.00;;;;;24.10;43.27;100573.06;5042535;28;55476;-80
2021/07/29 02:30:43;;;;;;;;;4.50;3.25;;;;;24.11;43.47;100567.63;5042645;28;47210;-80
2021/07/29 02:33:09;;;;;;;;;5.25;4.25;;;;;24.12;43.50;100574.69;5025305;28;63706;-80
2021/07/29 02:35:35;;;;;;;;;4.00;3.00;;;;;24.10;43.30;100567.72;5026416;28;45866;-80
2021/07/29 02:38:00;;;;;;;;;4.00;3.25;;;;;24.11;43.45;100572.97;5026204;28;45636;-80
2021/07/29 02:40:26;;;;;;;;;5.00;4.00;;;;;24.09;43.40;100580.19;5061045;28;45408;-80
2021/07/29 02:42:51;;;;;;;;;3.25;3.25;;;;;24.10;42.99;100587.25;5060034;28;59069;-80
2021/07/29 02:45:17;;;;;;;;;4.00;4.00;;;;;24.11;43.71;100588.09;5042425;28;53543;-80
2021/07/29 02:47:42;;;;;;;;;3.00;3.00;;;;;24.10;43.38;100586.38;5060597;28;45161;-80
2021/07/29 02:50:11;;;;;;;;;2.25;2.25;;;;;24.06;43.20;100582.97;5058711;28;68285;-80
2021/07/29 02:52:36;;;;;;;;;4.25;2.75;;;;;24.05;43.20;100583.94;5042106;28;45445;-80
2021/07/29 02:55:02;;;;;;;;;4.00;3.00;;;;;24.05;43.58;100588.41;5026327;28;45346;-80
2021/07/29 02:57:27;;;;;;;;;3.00;3.00;;;;;24.03;43.78;100585.81;5042386;28;46080;-80
2021/07/29 02:59:54;;;;;;;;;3.00;3.00;;;;;24.02;43.68;100585.91;5025914;28;48190;-80
2021/07/29 03:02:19;;;;;;;;;5.50;4.00;;;;;24.05;43.76;100585.72;5041905;28;45458;-80
2021/07/29 03:04:45;;;;;;;;;3.50;3.25;;;;;24.04;43.21;100581.34;5039271;28;45185;-81
2021/07/29 03:07:10;;;;;;;;;2.50;2.50;;;;;24.03;43.52;100587.63;5054392;28;60738;-81
2021/07/29 03:09:36;;;;;;;;;3.00;3.00;;;;;24.02;43.25;100589.41;5059057;28;45550;-80
2021/07/29 03:12:01;;;;;;;;;3.50;3.50;;;;;23.99;43.44;100588.72;5058928;28;46701;-81
2021/07/29 03:14:27;;;;;;;;;5.00;5.00;;;;;24.00;43.16;100591.31;5042468;28;45264;-81
2021/07/29 03:16:52;;;;;;;;;4.00;3.00;;;;;24.00;43.64;100593.13;5041785;28;45239;-80
2021/07/29 03:19:18;;;;;;;;;3.50;3.25;;;;;23.99;43.96;100596.72;5059017;28;45269;-81
2021/07/29 03:21:43;;;;;;;;;3.75;3.00;;;;;23.95;44.06;100588.00;5042173;28;45710;-80
2021/07/29 03:24:09;;;;;;;;;6.00;4.25;;;;;23.91;43.16;100579.28;5050573;28;45348;-81
2021/07/29 03:26:34;;;;;;;;;2.25;2.25;;;;;23.92;44.02;100583.69;5040669;28;45313;-81
2021/07/29 03:29:00;;;;;;;;;4.75;3.00;;;;;24.00;43.90;100595.78;5041979;28;47155;-81
2021/07/29 03:31:25;;;;;;;;;3.25;3.00;;;;;23.99;43.82;100600.25;5058403;28;45473;-80
2021/07/29 03:33:50;;;;;;;;;4.50;4.50;;;;;23.97;44.05;100592.28;5059660;28;62743;-80
2021/07/29 03:36:16;;;;;;;;;3.25;3.25;;;;;23.96;43.67;100590.56;5025205;28;45678;-80
2021/07/29 03:38:41;;;;;;;;;5.00;5.00;;;;;23.94;44.40;100588.94;5058869;28;46188;-80
2021/07/29 03:41:10;;;;;;;;;5.50;4.50;;;;;23.99;44.39;100583.38;5059888;28;45259;-81
2021/07/29 03:43:36;;;;;;;;;2.00;2.00;;;;;24.01;43.58;100587.69;5025466;28;45305;-80
2021/07/29 03:46:01;;;;;;;;;3.50;3.50;;;;;24.01;43.96;100592.16;5041381;28;45377;-80
2021/07/29 03:48:26;;;;;;;;;3.00;3.00;;;;;23.97;43.55;100591.44;5058572;28;56046;-80
2021/07/29 03:50:52;;;;;;;;;4.00;3.00;;;;;23.95;43.78;100599.50;5058100;28;51545;-80
2021/07/29 03:53:17;;;;;;;;;2.25;2.25;;;;;23.94;43.78;100604.94;5042147;28;45230;-80
2021/07/29 03:55:44;;;;;;;;;3.50;3.50;;;;;23.94;43.86;100599.59;5058971;28;45298;-80
2021/07/29 03:58:10;;;;;;;;;4.00;2.50;;;;;23.90;43.96;100593.56;5041997;28;48417;-81
2021/07/29 04:00:35;;;;;;;;;5.75;3.00;;;;;23.91;44.00;100595.28;5041312;28;45428;-80
2021/07/29 04:03:00;;;;;;;;;3.50;3.50;;;;;23.90;43.99;100600.69;5058392;28;45443;-80
2021/07/29 04:05:26;;;;;;;;;5.50;5.50;;;;;23.87;43.75;100600.81;5044934;28;45294;-81
2021/07/29 04:07:51;;;;;;;;;2.00;2.00;;;;;23.81;44.13;100603.81;5028684;28;48087;-80
2021/07/29 04:10:17;;;;;;;;;3.00;3.00;;;;;23.76;44.16;100596.00;5028231;28;45292;-81
2021/07/29 04:12:42;;;;;;;;;2.00;2.00;;;;;23.70;44.58;100596.28;5028753;28;45488;-80
2021/07/29 04:15:08;;;;;;;;;3.00;3.00;;;;;23.68;44.79;100601.69;5061596;28;45375;-80
2021/07/29 04:17:33;;;;;;;;;5.25;4.00;;;;;23.72;44.55;100596.22;5044782;28;47075;-80
2021/07/29 04:19:59;;;;;;;;;2.00;2.00;;;;;23.72;44.28;100604.22;5061673;28;45322;-81
2021/07/29 04:22:25;;;;;;;;;2.75;2.00;;;;;23.68;44.36;100603.50;5028564;28;45456;-81
2021/07/29 04:24:55;;;;;;;;;4.00;3.00;;;;;23.65;44.36;100604.53;5028309;28;45269;-80
2021/07/29 04:27:21;;;;;;;;;4.75;3.00;;;;;23.61;44.84;100605.59;5061910;28;46081;-80
2021/07/29 04:29:46;;;;;;;;;4.75;4.00;;;;;23.64;44.36;100599.28;5044780;28;45962;-81
2021/07/29 04:32:12;;;;;;;;;3.75;3.75;;;;;23.61;44.54;100592.25;5044083;28;57036;-81
2021/07/29 04:34:39;;;;;;;;;3.00;3.00;;;;;23.60;44.40;100603.84;5026534;28;45533;-81
2021/07/29 04:37:05;;;;;;;;;3.50;3.25;;;;;23.60;45.00;100603.00;5061648;28;45380;-81
2021/07/29 04:39:30;;;;;;;;;3.00;3.00;;;;;23.61;44.80;100594.06;5044625;28;45171;-81
2021/07/29 04:41:55;;;;;;;;;5.00;4.00;;;;;23.59;45.09;100603.91;5045608;28;57809;-80
2021/07/29 04:44:21;;;;;;;;;4.00;2.50;;;;;23.58;44.70;100603.03;5064330;28;45996;-81
2021/07/29 04:46:46;;;;;;;;;3.25;3.00;;;;;23.61;45.00;100602.06;5027554;28;47976;-80
2021/07/29 04:49:12;;;;;;;;;4.00;2.50;;;;;23.56;44.64;100602.25;5044616;28;45258;-81
2021/07/29 04:51:37;;;;;;;;;2.25;2.00;;;;;23.57;45.11;100613.78;5024894;28;45368;-80
2021/07/29 04:54:03;;;;;;;;;2.50;2.50;;;;;23.54;44.78;100608.56;5056033;28;45577;-80
2021/07/29 04:56:29;;;;;;;;;2.00;2.00;;;;;23.55;44.97;100613.00;5061234;28;45998;-81
2021/07/29 04:58:54;;;;;;;;;2.25;2.25;;;;;23.54;44.94;100612.09;5030993;28;45918;-81
2021/07/29 05:01:19;;;;;;;;;4.00;3.25;;;;;23.51;44.96;100601.59;5044410;28;45371;-80
2021/07/29 05:03:45;;;;;;;;;2.00;2.00;;;;;23.49;44.79;100610.59;5026999;28;55388;-81
2021/07/29 05:06:11;;;;;;;;;3.50;3.50;;;;;23.48;45.10;100609.75;5062391;28;46183;-81
2021/07/29 05:08:36;;;;;;;;;3.25;3.25;;;;;23.49;45.75;100611.47;5060966;28;45433;-78
2021/07/29 05:11:03;;;;;;;;;2.75;2.75;;;;;23.45;45.55;100593.88;5078015;28;45378;-80
2021/07/29 05:13:28;;;;;;;;;3.75;3.75;;;;;23.50;45.19;100615.84;5062194;28;45516;-80
2021/07/29 05:15:53;;;;;;;;;4.00;4.00;;;;;23.52;45.56;100613.13;5061192;28;45314;-80
2021/07/29 05:18:19;;;;;;;;;3.00;3.00;;;;;23.49;44.77;100619.44;5060411;28;56330;-78
2021/07/29 05:20:44;;;;;;;;;3.00;3.00;;;;;23.54;45.34;100613.91;5044446;28;45331;-80
2021/07/29 05:23:10;;;;;;;;;7.00;5.25;;;;;23.59;45.53;100622.56;5061460;28;53052;-75
2021/07/29 05:25:38;;;;;;;;;9.50;8.25;;;;;23.63;46.13;100621.50;5061539;28;63634;-82
2021/07/29 05:28:04;;;;;;;;;27.50;24.25;;;;;23.71;47.89;100618.47;5061323;28;60635;-82
2021/07/29 05:30:29;;;;;;;;;6.00;6.00;;;;;23.78;45.87;100617.25;5027325;28;45253;-82
2021/07/29 05:32:55;;;;;;;;;5.50;4.50;;;;;23.76;45.56;100609.34;5060279;28;48832;-81
2021/07/29 05:35:20;;;;;;;;;8.00;8.00;;;;;23.87;46.62;100619.47;5061767;28;46046;-81
2021/07/29 05:37:45;;;;;;;;;7.50;6.75;;;;;23.91;45.75;100627.28;5043267;28;54960;-81
2021/07/29 05:40:11;;;;;;;;;4.75;3.50;;;;;23.92;45.21;100630.81;5060336;28;54483;-83
2021/07/29 05:42:36;;;;;;;;;3.75;3.75;;;;;23.93;45.49;100625.38;5059891;28;55010;-81
2021/07/29 05:45:02;;;;;;;;;5.25;3.50;;;;;23.93;46.61;100625.38;5026788;28;47541;-81
2021/07/29 05:47:27;;;;;;;;;10.50;10.00;;;;;24.03;46.95;100632.94;5057107;28;45391;-82
2021/07/29 05:49:53;;;;;;;;;6.00;6.00;;;;;24.17;46.69;100643.81;5061588;28;49183;-80
2021/07/29 05:52:18;;;;;;;;;5.00;5.00;;;;;24.25;46.04;100650.50;5060282;28;45299;-80
2021/07/29 05:54:44;;;;;;;;;5.00;4.00;;;;;24.33;46.09;100641.31;5061189;28;62589;-79
2021/07/29 05:57:09;;;;;;;;;4.50;4.00;;;;;24.36;45.61;100638.47;5061391;28;45429;-76
2021/07/29 05:59:34;;;;;;;;;5.00;5.00;;;;;24.37;45.91;100635.72;5061057;28;45415;-77
2021/07/29 06:02:00;;;;;;;;;5.00;4.50;;;;;24.39;45.50;100630.31;5042562;28;50667;-78
2021/07/29 06:04:25;;;;;;;;;3.00;3.00;;;;;24.45;45.70;100640.69;5056629;28;45364;-80
2021/07/29 06:06:51;;;;;;;;;6.50;5.25;;;;;24.48;45.99;100630.72;5023601;28;45181;-79
2021/07/29 06:09:16;;;;;;;;;6.50;5.00;;;;;24.48;45.47;100633.38;5076477;28;50920;-77
2021/07/29 06:11:41;;;;;;;;;3.50;3.50;;;;;24.47;45.03;100630.78;5053805;28;45330;-76
2021/07/29 06:14:10;;;;;;;;;6.25;4.00;;;;;24.46;45.07;100637.94;5042672;28;46984;-81
2021/07/29 06:16:35;;;;;;;;;5.75;4.25;;;;;24.37;45.22;100637.53;5042838;28;45401;-80
2021/07/29 06:19:28;;;;;;;;;4.00;4.00;;;;;24.28;44.40;100632.63;5059992;28;45850;-80
2021/07/29 06:21:49;;;;;;;;;4.75;3.50;;;;;24.25;44.70;100650.50;5061048;28;47541;-81
2021/07/29 06:24:14;;;;;;;;;5.00;4.75;;;;;24.22;45.34;100655.97;5060573;28;57887;-81
2021/07/29 06:26:40;;;;;;;;;2.25;2.25;;;;;24.26;44.76;100656.69;5059302;28;45706;-81
2021/07/29 06:29:05;;;;;;;;;4.00;3.00;;;;;24.24;45.00;100656.78;5060554;28;45223;-77
2021/07/29 06:31:32;;;;;;;;;5.00;3.25;;;;;24.22;44.67;100660.44;5060525;28;45235;-77
2021/07/29 06:33:59;;;;;;;;;4.25;4.25;;;;;24.18;44.77;100650.88;5059761;28;45286;-78
2021/07/29 06:36:27;;;;;;;;;3.50;3.50;;;;;24.24;44.88;100671.91;5043039;28;45185;-77
2021/07/29 06:38:53;;;;;;;;;3.50;3.50;;;;;24.21;44.51;100667.56;5059059;28;63538;-77
2021/07/29 06:41:18;;;;;;;;;4.50;3.00;;;;;24.28;45.00;100676.16;5059857;28;64532;-77
2021/07/29 06:43:44;;;;;;;;;3.00;3.00;;;;;24.30;44.69;100668.06;5025875;28;47998;-76
2021/07/29 06:46:09;;;;;;;;;4.00;2.75;;;;;24.33;44.78;100665.31;5058345;28;59851;-77
2021/07/29 06:48:35;;;;;;;;;3.00;3.00;;;;;24.31;44.46;100652.00;5059033;28;59666;-77
2021/07/29 06:51:04;;;;;;;;;4.25;4.25;;;;;24.44;44.84;100673.63;5042547;28;45571;-77
2021/07/29 06:53:30;;;;;;;;;3.00;3.00;;;;;24.47;44.17;100678.81;5060624;28;45298;-77
2021/07/29 06:56:01;;;;;;;;;3.00;3.00;;;;;24.53;44.28;100682.03;5026030;28;45398;-78
2021/07/29 06:58:27;;;;;;;;;5.75;5.00;;;;;24.60;43.89;100687.09;5034137;28;45684;-78
2021/07/29 07:00:52;;;;;;;;;3.00;2.75;;;;;24.63;43.17;100693.13;5032715;28;45438;-76
2021/07/29 07:03:18;;;;;;;;;3.00;3.00;;;;;24.63;43.57;100690.47;5054610;28;45315;-77
2021/07/29 07:05:46;;;;;;;;;6.00;3.00;;;;;24.66;43.13;100697.44;5053964;28;45394;-76
2021/07/29 07:08:15;;;;;;;;;5.25;3.50;;;;;24.72;43.48;100695.34;5059176;28;45272;-76
2021/07/29 07:10:41;;;;;;;;;3.00;3.00;;;;;24.74;42.84;100693.44;5041968;28;45540;-77
2021/07/29 07:13:06;;;;;;;;;5.75;3.25;;;;;24.72;42.94;100692.66;5042398;28;45398;-77
2021/07/29 07:15:32;;;;;;;;;4.25;3.00;;;;;24.69;42.56;100692.84;5042023;28;45262;-77
2021/07/29 07:17:57;;;;;;;;;5.75;4.00;;;;;24.69;43.45;100705.31;5025667;28;45265;-80
2021/07/29 07:20:26;;;;;;;;;4.00;4.00;;;;;24.66;43.37;100703.63;5058498;28;45205;-77
2021/07/29 07:22:52;;;;;;;;;4.25;3.00;;;;;24.66;44.32;100698.31;5058969;28;45572;-78
2021/07/29 07:25:18;;;;;;;;;3.75;3.25;;;;;24.74;44.06;100705.94;5049734;28;45797;-77
2021/07/29 07:27:43;;;;;;;;;5.50;3.50;;;;;24.75;43.34;100708.50;5032856;28;45649;-80
2021/07/29 07:30:09;;;;;;;;;3.75;3.75;;;;;24.77;43.34;100705.78;5040352;28;60173;-80
2021/07/29 07:32:34;;;;;;;;;5.25;3.00;;;;;24.79;43.01;100703.91;5059361;28;46201;-80
2021/07/29 07:35:00;;;;;;;;;3.50;3.25;;;;;24.86;43.07;100710.66;5041730;28;45311;-77
2021/07/29 07:37:25;;;;;;;;;6.25;4.50;;;;;24.88;43.24;100716.78;5060030;28;45278;-77
2021/07/29 07:39:51;;;;;;;;;3.75;3.75;;;;;24.90;42.84;100720.25;5045810;28;65218;-81
2021/07/29 07:42:16;;;;;;;;;4.00;3.25;;;;;24.91;42.39;100710.41;5049969;28;67635;-79
2021/07/29 07:44:42;;;;;;;;;2.00;2.00;;;;;24.85;42.58;100708.06;5058151;28;45260;-80
2021/07/29 07:47:07;;;;;;;;;3.00;3.00;;;;;24.88;42.88;100707.91;5071778;28;58494;-76
2021/07/29 07:49:33;;;;;;;;;3.00;3.00;;;;;24.89;42.41;100712.31;5047945;28;45620;-78
2021/07/29 07:51:59;;;;;;;;;4.25;4.25;;;;;24.89;41.68;100709.63;5031381;28;46953;-78
2021/07/29 07:54:25;;;;;;;;;7.00;4.75;;;;;24.88;42.47;100705.25;5039468;28;45283;-78
2021/07/29 07:56:50;;;;;;;;;4.50;4.50;;;;;24.91;42.33;100707.75;5061915;28;56634;-78
2021/07/29 07:59:15;;;;;;;;;4.25;3.50;;;;;24.94;42.20;100708.47;5081588;28;45397;-80
2021/07/29 08:01:41;;;;;;;;;3.75;3.50;;;;;24.94;41.79;100696.94;5063872;28;48117;-78
2021/07/29 08:04:06;;;;;;;;;3.00;3.00;;;;;24.95;41.58;100702.19;5027947;28;45324;-77
2021/07/29 08:06:36;;;;;;;;;7.00;3.50;;;;;24.92;41.89;100693.44;5073145;28;45407;-77
2021/07/29 08:09:02;;;;;;;;;5.75;4.50;;;;;24.94;41.78;100694.25;5065473;28;45363;-77
2021/07/29 08:11:27;;;;;;;;;4.00;4.00;;;;;25.00;41.76;100701.94;5047600;28;46325;-77
2021/07/29 08:13:53;;;;;;;;;6.00;4.00;;;;;24.97;41.52;100699.44;5066082;28;45249;-79
2021/07/29 08:16:18;;;;;;;;;6.50;5.00;;;;;24.95;41.38;100698.66;5065624;28;45848;-79
2021/07/29 08:18:43;;;;;;;;;4.00;4.00;;;;;24.98;41.43;100699.34;5065630;28;45296;-80
2021/07/29 08:21:12;;;;;;;;;2.00;2.00;;;;;25.00;41.43;100712.63;5064491;28;46861;-78
2021/07/29 08:23:37;;;;;;;;;2.75;2.75;;;;;24.99;41.07;100701.06;5065700;28;45327;-81
2021/07/29 08:26:03;;;;;;;;;4.00;3.00;;;;;24.96;41.18;100713.72;5061311;28;45382;-80
2021/07/29 08:28:28;;;;;;;;;3.50;2.50;;;;;24.92;41.24;100698.78;5078165;28;45528;-81
2021/07/29 08:30:54;;;;;;;;;4.75;2.75;;;;;24.88;41.13;100692.75;5064326;28;46181;-74
2021/07/29 08:33:19;;;;;;;;;5.25;3.00;;;;;24.95;41.08;100702.19;5065690;28;45460;-76
2021/07/29 08:35:45;;;;;;;;;6.00;5.00;;;;;25.00;41.85;100701.94;5047877;28;45462;-78
2021/07/29 08:38:10;;;;;;;;;3.25;3.25;;;;;25.05;41.34;100707.94;5064010;28;47746;-78
2021/07/29 08:40:35;;;;;;;;;5.25;4.00;;;;;25.09;41.52;100699.69;5065041;28;66904;-80
2021/07/29 08:43:27;;;;;;;;;4.75;4.00;;;;;25.14;40.95;100694.13;5046943;28;45357;-77
2021/07/29 08:45:53;;;;;;;;;3.00;3.00;;;;;25.20;40.00;100690.28;5064369;28;45929;-79
2021/07/29 08:48:23;;;;;;;;;4.00;4.00;;;;;25.17;39.77;100703.78;5047181;28;45401;-78
2021/07/29 08:50:48;;;;;;;;;4.50;4.50;;;;;25.17;39.43;100698.44;5028271;28;47211;-78
2021/07/29 08:53:14;;;;;;;;;3.75;1.50;;;;;25.08;39.93;100686.41;5043902;28;58759;-79
2021/07/29 08:55:55;;;;;;;;;4.25;4.25;;;;;25.12;39.92;100706.69;5030739;28;45628;-80
2021/07/29 08:58:20;;;;;;;;;3.00;3.00;;;;;25.12;39.97;100706.69;5045506;28;45631;-77
2021/07/29 09:01:00;;;;;;;;;3.00;3.00;;;;;25.11;39.65;100699.63;5060297;28;46140;-77
2021/07/29 09:03:27;;;;;;;;;4.00;3.25;;;;;25.10;39.69;100697.88;5040347;28;45491;-78
2021/07/29 09:06:09;;;;;;;;;3.50;3.00;;;;;25.09;39.22;100694.34;5059319;28;45536;-77
2021/07/29 09:08:54;;;;;;;;;4.00;4.00;;;;;25.09;39.55;100705.03;5027056;28;45531;-77
2021/07/29 09:11:36;;;;;;;;;2.25;2.25;;;;;25.07;39.58;100696.25;5052062;28;46064;-75
2021/07/29 09:14:07;;;;;;;;;3.00;3.00;;;;;25.06;39.34;100699.00;5026283;28;45703;-76
2021/07/29 09:16:39;;;;;;;;;4.00;4.00;;;;;25.04;39.61;100693.75;5058831;28;45432;-76
2021/07/29 09:19:05;;;;;;;;;5.00;2.00;;;;;25.08;39.64;100692.63;5028995;28;45162;-77
2021/07/29 09:21:30;;;;;;;;;5.00;3.25;;;;;25.10;39.39;100692.53;5022308;28;45560;-77
2021/07/29 09:24:08;;;;;;;;;3.00;3.00;;;;;25.12;39.46;100689.81;5043432;28;59063;-75
2021/07/29 09:26:58;;;;;;;;;3.00;2.00;;;;;25.11;39.10;100691.63;5025728;28;45268;-75
2021/07/29 09:29:29;;;;;;;;;4.75;3.75;;;;;25.11;39.31;100682.72;5060558;28;45285;-75
2021/07/29 09:32:16;;;;;;;;;2.50;2.50;;;;;25.12;39.04;100684.47;5023543;28;47264;-76
2021/07/29 09:34:42;;;;;;;;;2.75;2.00;;;;;25.11;38.39;100691.63;5055751;28;45579;-80
2021/07/29 09:37:08;;;;;;;;;2.50;2.25;;;;;25.08;38.38;100694.44;5057335;28;45493;-79
2021/07/29 09:39:33;;;;;;;;;2.25;2.00;;;;;25.04;38.49;100687.53;5054144;28;45809;-79
2021/07/29 09:42:18;;;;;;;;;2.00;2.00;;;;;24.99;38.90;100681.53;5034311;28;62695;-79
2021/07/29 09:44:44;;;;;;;;;4.75;3.25;;;;;25.04;38.43;100684.88;5042866;28;45337;-80
2021/07/29 09:47:12;;;;;;;;;4.00;4.00;;;;;25.01;38.38;100684.97;5028780;28;45294;-79
2021/07/29 09:49:38;;;;;;;;;4.00;2.00;;;;;24.94;38.87;100676.44;5044124;28;45277;-77
2021/07/29 09:52:06;;;;;;;;;4.25;3.00;;;;;24.93;38.97;100671.16;5053622;28;47565;-79
2021/07/29 09:54:35;;;;;;;;;2.50;2.25;;;;;24.89;38.73;100670.47;5039900;28;45432;-79
2021/07/29 09:57:01;;;;;;;;;2.00;2.00;;;;;24.88;38.95;100678.53;5008311;28;45436;-78
2021/07/29 09:59:26;;;;;;;;;3.00;3.00;;;;;24.89;38.45;100678.47;5072012;28;45358;-78
2021/07/29 10:02:04;;;;;;;;;3.00;3.00;;;;;24.83;38.71;100667.22;5035208;28;47086;-77
2021/07/29 10:04:37;;;;;;;;;3.25;3.25;;;;;24.87;38.53;100675.00;5043508;28;45480;-78
2021/07/29 10:07:06;;;;;;;;;3.00;3.00;;;;;24.90;38.58;100674.00;5054845;28;45373;-78
2021/07/29 10:09:45;;;;;;;;;3.00;3.00;;;;;24.86;38.37;100672.44;5049129;28;45464;-77
2021/07/29 10:12:10;;;;;;;;;3.00;3.00;;;;;24.85;38.93;100671.56;5027935;28;47105;-78
2021/07/29 10:14:52;;;;;;;;;4.00;3.00;;;;;24.88;38.57;100671.41;5042952;28;45415;-78
2021/07/29 10:17:34;;;;;;;;;2.00;2.00;;;;;24.86;38.33;100665.28;5061075;28;45421;-77
2021/07/29 10:20:11;;;;;;;;;3.75;2.25;;;;;24.89;38.72;100670.47;5044737;28;45516;-78
2021/07/29 10:22:37;;;;;;;;;3.50;2.00;;;;;24.90;38.52;100663.31;5049820;28;47209;-78
2021/07/29 10:25:03;;;;;;;;;4.00;3.00;;;;;24.92;38.63;100664.09;5056899;28;45270;-77
2021/07/29 10:27:28;;;;;;;;;3.00;3.00;;;;;24.93;38.21;100673.81;5061981;28;45196;-76
2021/07/29 10:30:16;;;;;;;;;3.75;2.00;;;;;24.84;38.54;100658.28;5060792;28;56687;-77
2021/07/29 10:32:46;;;;;;;;;1.75;1.75;;;;;24.84;37.82;100663.63;5060454;28;45463;-77
2021/07/29 10:35:29;;;;;;;;;3.00;2.25;;;;;24.85;38.05;100665.34;5060548;28;45257;-78
2021/07/29 10:37:55;;;;;;;;;3.50;2.00;;;;;24.87;37.58;100655.47;5057927;28;45437;-78
2021/07/29 10:40:37;;;;;;;;;4.00;3.00;;;;;24.87;38.30;100656.34;5059382;28;45593;-77
2021/07/29 10:43:25;;;;;;;;;5.00;4.25;;;;;24.90;38.17;100652.63;5060105;28;46405;-78
2021/07/29 10:45:53;;;;;;;;;3.50;3.00;;;;;24.90;37.53;100649.97;5060382;28;45434;-78
2021/07/29 10:48:51;;;;;;;;;2.00;2.00;;;;;24.92;37.03;100653.41;5034118;28;46698;-79
2021/07/29 10:51:23;;;;;;;;;3.00;3.00;;;;;24.93;37.46;100661.31;5039701;28;45905;-77
2021/07/29 10:53:53;;;;;;;;;2.25;2.25;;;;;24.93;37.71;100652.47;5051665;28;46351;-77
2021/07/29 10:56:19;;;;;;;;;3.00;3.00;;;;;24.95;37.43;100661.28;5060189;28;45264;-79
2021/07/29 10:58:46;;;;;;;;;6.25;3.00;;;;;24.92;37.49;100653.41;5060689;28;45433;-79
2021/07/29 11:01:12;;;;;;;;;4.00;3.00;;;;;24.86;37.75;100643.06;5059183;28;45268;-76
2021/07/29 11:03:55;;;;;;;;;5.25;3.00;;;;;24.94;38.06;100657.75;5043158;28;47202;-79
2021/07/29 11:06:35;;;;;;;;;2.50;2.50;;;;;24.99;37.45;100647.66;5059330;28;45413;-78
2021/07/29 11:09:12;;;;;;;;;3.50;2.50;;;;;24.94;36.95;100639.06;5075115;28;45295;-78
2021/07/29 11:11:38;;;;;;;;;3.25;3.25;;;;;25.01;36.78;100644.91;5055730;28;45444;-78
2021/07/29 11:14:14;;;;;;;;;3.25;2.00;;;;;25.00;36.93;100654.72;5057659;28;45425;-78
2021/07/29 11:16:39;;;;;;;;;3.00;3.00;;;;;25.02;37.19;100657.31;5041562;28;45483;-78
2021/07/29 11:19:06;;;;;;;;;2.75;2.75;;;;;25.02;36.45;100644.91;5059080;28;45316;-77
2021/07/29 11:21:32;;;;;;;;;2.50;2.00;;;;;25.01;36.42;100639.56;5058864;28;45564;-78
2021/07/29 11:23:58;;;;;;;;;4.75;3.00;;;;;25.05;36.44;100641.19;5051774;28;45564;-77
2021/07/29 11:26:24;;;;;;;;;3.00;3.00;;;;;25.08;37.00;100641.03;5015908;28;45776;-78
2021/07/29 11:29:08;;;;;;;;;2.75;2.00;;;;;25.05;36.78;100633.19;5042154;28;45276;-78